createdAt,value
2018-03-21T00:00:37.639Z,11.65
2018-03-21T00:03:05.865Z,11.70
2018-03-21T00:05:33.312Z,9.90
2018-03-21T00:08:00.773Z,12.30
2018-03-21T00:10:29.162Z,10.13
2018-03-21T00:12:56.613Z,9.70
2018-03-21T00:15:24.070Z,14.73
2018-03-21T00:17:51.533Z,8.48
2018-03-21T00:20:18.980Z,10.47
2018-03-21T00:22:46.459Z,10.50
2018-03-21T00:25:13.932Z,10.40
2018-03-21T00:27:42.155Z,10.13
2018-03-21T00:30:09.609Z,7.23
2018-03-21T00:32:37.090Z,11.00
2018-03-21T00:35:04.724Z,12.00
2018-03-21T00:37:32.159Z,10.30
2018-03-21T00:39:59.623Z,7.57
2018-03-21T00:42:27.081Z,9.37
2018-03-21T00:44:54.551Z,9.37
2018-03-21T00:47:22.017Z,8.27
2018-03-21T00:49:49.471Z,8.50
2018-03-21T00:52:16.961Z,7.03
2018-03-21T00:54:44.436Z,7.80
2018-03-21T00:57:12.668Z,10.60
2018-03-21T00:59:40.149Z,9.07
2018-03-21T01:02:07.594Z,7.87
2018-03-21T01:04:35.054Z,8.23
2018-03-21T01:07:02.508Z,8.00
2018-03-21T01:09:29.984Z,7.57
2018-03-21T01:11:57.447Z,8.17
2018-03-21T01:14:24.903Z,6.37
2018-03-21T01:16:52.368Z,9.30
2018-03-21T01:19:19.830Z,6.30
2018-03-21T01:21:47.293Z,6.90
2018-03-21T01:24:14.755Z,9.20
2018-03-21T01:26:42.968Z,8.83
2018-03-21T01:29:10.439Z,6.80
2018-03-21T01:31:37.894Z,6.90
2018-03-21T01:34:05.361Z,6.47
2018-03-21T01:36:32.816Z,6.87
2018-03-21T01:39:00.293Z,7.00
2018-03-21T01:41:28.522Z,7.03
2018-03-21T01:43:55.990Z,5.70
2018-03-21T01:46:23.437Z,7.33
2018-03-21T01:48:50.902Z,7.23
2018-03-21T01:51:18.358Z,7.80
2018-03-21T01:53:46.405Z,6.77
2018-03-21T01:56:13.819Z,7.43
2018-03-21T01:58:41.283Z,6.03
2018-03-21T02:01:08.853Z,7.03
2018-03-21T02:03:36.317Z,9.73
2018-03-21T02:06:03.774Z,7.23
2018-03-21T02:08:32.002Z,5.80
2018-03-21T02:10:59.487Z,7.00
2018-03-21T02:13:27.718Z,8.23
2018-03-21T02:15:55.322Z,7.12
2018-03-21T02:18:22.778Z,6.60
2018-03-21T02:20:50.241Z,7.60
2018-03-21T02:23:17.706Z,7.50
2018-03-21T02:25:45.182Z,6.60
2018-03-21T02:28:13.389Z,7.00
2018-03-21T02:30:40.891Z,8.90
2018-03-21T02:33:08.305Z,8.63
2018-03-21T02:35:35.785Z,6.07
2018-03-21T02:38:03.226Z,8.98
2018-03-21T02:40:30.688Z,6.10
2018-03-21T02:42:58.129Z,9.23
2018-03-21T02:45:25.595Z,6.80
2018-03-21T02:47:53.056Z,7.93
2018-03-21T02:50:20.517Z,8.77
2018-03-21T02:52:47.963Z,8.03
2018-03-21T02:55:15.421Z,13.10
2018-03-21T02:57:42.877Z,8.68
2018-03-21T03:00:10.373Z,6.63
2018-03-21T03:02:37.936Z,7.03
2018-03-21T03:05:05.398Z,8.43
2018-03-21T03:07:32.841Z,8.33
2018-03-21T03:10:00.300Z,8.10
2018-03-21T03:12:28.551Z,7.20
2018-03-21T03:14:56.007Z,6.60
2018-03-21T03:17:24.220Z,6.27
2018-03-21T03:19:51.676Z,8.23
2018-03-21T03:22:19.116Z,7.53
2018-03-21T03:24:46.595Z,7.37
2018-03-21T03:27:14.105Z,8.07
2018-03-21T03:29:41.556Z,7.90
2018-03-21T03:32:09.026Z,7.57
2018-03-21T03:34:36.507Z,10.77
2018-03-21T03:37:03.960Z,8.40
2018-03-21T03:39:31.408Z,8.30
2018-03-21T03:41:58.870Z,8.75
2018-03-21T03:44:26.329Z,5.80
2018-03-21T03:46:53.795Z,7.77
2018-03-21T03:49:21.244Z,9.70
2018-03-21T03:51:48.705Z,11.10
2018-03-21T03:54:16.169Z,11.83
2018-03-21T03:56:43.641Z,8.07
2018-03-21T03:59:11.109Z,7.37
2018-03-21T04:01:39.365Z,8.93
2018-03-21T04:04:06.815Z,8.50
2018-03-21T04:09:25.442Z,10.50
2018-03-21T04:11:52.898Z,9.00
2018-03-21T04:14:20.354Z,8.20
2018-03-21T04:16:47.810Z,9.97
2018-03-21T04:19:16.138Z,7.63
2018-03-21T04:21:43.584Z,9.00
2018-03-21T04:24:12.062Z,10.03
2018-03-21T04:26:39.509Z,10.90
2018-03-21T04:29:07.022Z,8.67
2018-03-21T04:31:35.230Z,9.80
2018-03-21T04:34:02.704Z,11.03
2018-03-21T04:36:30.165Z,8.63
2018-03-21T04:38:57.607Z,9.87
2018-03-21T04:41:25.064Z,10.00
2018-03-21T04:43:52.525Z,9.77
2018-03-21T04:46:19.977Z,9.40
2018-03-21T04:48:47.432Z,8.73
2018-03-21T04:51:14.906Z,8.80
2018-03-21T04:53:42.360Z,10.60
2018-03-21T04:56:09.820Z,11.90
2018-03-21T04:58:37.293Z,13.13
2018-03-21T05:01:04.761Z,11.73
2018-03-21T05:03:33.721Z,11.10
2018-03-21T05:06:01.173Z,9.50
2018-03-21T05:08:28.621Z,10.37
2018-03-21T05:10:56.106Z,11.73
2018-03-21T05:13:23.561Z,10.07
2018-03-21T05:15:51.029Z,9.07
2018-03-21T05:18:18.485Z,12.50
2018-03-21T05:20:45.931Z,8.60
2018-03-21T05:23:13.389Z,10.20
2018-03-21T05:25:40.836Z,10.80
2018-03-21T05:28:08.304Z,12.50
2018-03-21T05:30:36.157Z,12.33
2018-03-21T05:33:03.622Z,16.30
2018-03-21T05:35:31.097Z,11.87
2018-03-21T05:37:58.545Z,13.50
2018-03-21T05:40:26.712Z,9.77
2018-03-21T05:42:54.163Z,10.95
2018-03-21T05:45:21.628Z,10.40
2018-03-21T05:47:49.088Z,14.93
2018-03-21T05:50:16.544Z,9.83
2018-03-21T05:52:45.366Z,13.13
2018-03-21T05:55:12.856Z,9.10
2018-03-21T05:57:40.317Z,11.00
2018-03-21T06:00:07.772Z,9.70
2018-03-21T06:02:35.244Z,11.80
2018-03-21T06:05:02.701Z,12.20
2018-03-21T06:07:30.159Z,15.13
2018-03-21T06:09:57.616Z,17.40
2018-03-21T06:12:25.101Z,13.27
2018-03-21T06:14:53.247Z,11.00
2018-03-21T06:17:20.722Z,11.70
2018-03-21T06:19:48.180Z,14.07
2018-03-21T06:22:15.640Z,52.20
2018-03-21T06:24:43.093Z,46.50
2018-03-21T06:27:10.557Z,11.88
2018-03-21T06:29:38.030Z,13.90
2018-03-21T06:32:05.494Z,10.53
2018-03-21T06:34:32.936Z,9.90
2018-03-21T06:37:00.393Z,9.37
2018-03-21T06:39:27.846Z,8.67
2018-03-21T06:41:55.329Z,10.97
2018-03-21T06:44:22.776Z,9.23
2018-03-21T06:46:50.245Z,14.93
2018-03-21T06:49:18.469Z,12.77
2018-03-21T06:51:45.932Z,8.50
2018-03-21T06:54:13.414Z,10.30
2018-03-21T06:56:40.889Z,16.53
2018-03-21T06:59:09.120Z,9.77
2018-03-21T07:01:36.584Z,17.00
2018-03-21T07:04:04.036Z,12.03
2018-03-21T07:06:31.508Z,11.03
2018-03-21T07:08:58.980Z,20.50
2018-03-21T07:11:26.537Z,13.37
2018-03-21T07:14:05.934Z,13.07
2018-03-21T07:16:53.316Z,15.50
2018-03-21T07:19:20.798Z,12.63
2018-03-21T07:21:48.256Z,11.93
2018-03-21T07:24:15.724Z,14.80
2018-03-21T07:26:43.168Z,16.33
2018-03-21T07:29:10.630Z,20.30
2018-03-21T07:31:38.090Z,13.73
2018-03-21T07:34:05.550Z,16.10
2018-03-21T07:36:33.001Z,13.37
2018-03-21T07:39:00.467Z,17.40
2018-03-21T07:41:27.931Z,14.00
2018-03-21T07:43:55.407Z,13.03
2018-03-21T07:46:22.884Z,13.57
2018-03-21T07:48:50.343Z,17.00
2018-03-21T07:51:17.819Z,13.33
2018-03-21T07:53:45.289Z,13.43
2018-03-21T07:56:13.488Z,12.40
2018-03-21T07:58:40.962Z,13.10
2018-03-21T08:01:08.430Z,13.13
2018-03-21T08:03:35.924Z,14.82
2018-03-21T08:06:03.394Z,11.63
2018-03-21T08:08:31.632Z,22.73
2018-03-21T08:10:59.082Z,17.67
2018-03-21T08:13:26.541Z,12.70
2018-03-21T08:15:54.054Z,18.70
2018-03-21T08:18:21.461Z,13.60
2018-03-21T08:20:48.912Z,13.33
2018-03-21T08:23:16.387Z,17.10
2018-03-21T08:25:43.954Z,11.48
2018-03-21T08:28:11.422Z,14.40
2018-03-21T08:30:39.652Z,15.67
2018-03-21T08:33:07.097Z,14.80
2018-03-21T08:35:34.563Z,11.87
2018-03-21T08:38:02.012Z,22.83
2018-03-21T08:40:29.477Z,13.40
2018-03-21T08:42:56.939Z,15.80
2018-03-21T08:45:24.416Z,17.63
2018-03-21T08:47:51.883Z,18.57
2018-03-21T08:50:19.351Z,13.40
2018-03-21T08:52:46.821Z,15.60
2018-03-21T08:55:14.309Z,13.17
2018-03-21T08:57:41.767Z,11.67
2018-03-21T09:00:09.245Z,16.98
2018-03-21T09:02:36.676Z,11.20
2018-03-21T09:05:04.164Z,10.30
2018-03-21T09:07:31.662Z,8.77
2018-03-21T09:09:59.093Z,9.80
2018-03-21T09:12:26.545Z,7.63
2018-03-21T09:14:54.009Z,8.70
2018-03-21T09:17:21.444Z,7.70
2018-03-21T09:19:48.895Z,6.33
2018-03-21T09:22:16.358Z,5.13
2018-03-21T09:24:43.825Z,5.90
2018-03-21T09:27:11.275Z,6.10
2018-03-21T09:29:38.733Z,8.63
2018-03-21T09:32:06.181Z,5.07
2018-03-21T09:34:34.525Z,5.83
2018-03-21T09:37:02.189Z,7.50
2018-03-21T09:39:30.414Z,6.40
2018-03-21T09:41:57.864Z,5.73
2018-03-21T09:44:25.324Z,7.83
2018-03-21T09:46:52.763Z,8.77
2018-03-21T09:49:20.225Z,7.50
2018-03-21T09:51:47.675Z,9.60
2018-03-21T09:54:15.129Z,6.80
2018-03-21T09:56:42.597Z,6.13
2018-03-21T09:59:10.037Z,7.37
2018-03-21T10:01:37.488Z,8.57
2018-03-21T10:04:04.944Z,10.00
2018-03-21T10:06:32.397Z,9.57
2018-03-21T10:09:00.069Z,6.30
2018-03-21T10:11:27.588Z,9.87
2018-03-21T10:13:55.029Z,8.77
2018-03-21T10:16:22.479Z,5.17
2018-03-21T10:18:49.930Z,8.20
2018-03-21T10:21:17.386Z,6.90
2018-03-21T10:23:44.886Z,8.73
2018-03-21T10:26:12.308Z,8.37
2018-03-21T10:28:39.757Z,7.40
2018-03-21T10:31:07.239Z,6.67
2018-03-21T10:33:34.698Z,9.60
2018-03-21T10:36:02.158Z,5.90
2018-03-21T10:38:30.377Z,6.12
2018-03-21T10:40:57.838Z,13.33
2018-03-21T10:43:25.322Z,6.87
2018-03-21T10:45:52.790Z,7.73
2018-03-21T10:48:20.254Z,6.70
2018-03-21T10:50:49.209Z,9.30
2018-03-21T10:53:16.684Z,9.23
2018-03-21T10:55:44.134Z,8.57
2018-03-21T10:58:11.584Z,11.70
2018-03-21T11:00:39.048Z,7.90
2018-03-21T11:03:06.500Z,7.60
2018-03-21T11:05:34.163Z,8.40
2018-03-21T11:08:01.612Z,8.17
2018-03-21T11:10:29.088Z,10.13
2018-03-21T11:12:57.316Z,7.73
2018-03-21T11:15:24.787Z,20.40
2018-03-21T11:17:52.254Z,13.80
2018-03-21T11:20:19.704Z,8.23
2018-03-21T11:22:47.155Z,5.95
2018-03-21T11:25:14.692Z,12.97
2018-03-21T11:27:42.105Z,9.27
2018-03-21T11:30:09.615Z,6.93
2018-03-21T11:32:37.029Z,6.30
2018-03-21T11:35:04.485Z,6.80
2018-03-21T11:37:31.962Z,5.73
2018-03-21T11:39:59.400Z,7.07
2018-03-21T11:42:26.859Z,9.30
2018-03-21T11:44:54.313Z,7.83
2018-03-21T11:47:21.783Z,11.13
2018-03-21T11:49:49.231Z,6.87
2018-03-21T11:52:16.790Z,6.83
2018-03-21T11:54:46.109Z,20.43
2018-03-21T11:57:13.575Z,7.93
2018-03-21T11:59:41.807Z,7.90
2018-03-21T12:02:09.276Z,8.90
2018-03-21T12:04:36.740Z,8.40
2018-03-21T12:07:04.210Z,9.10
2018-03-21T12:09:32.449Z,6.80
2018-03-21T12:11:59.917Z,6.20
2018-03-21T12:14:27.377Z,9.17
2018-03-21T12:16:54.831Z,17.77
2018-03-21T12:19:22.287Z,5.47
2018-03-21T12:21:49.758Z,5.47
2018-03-21T12:24:17.198Z,6.80
2018-03-21T12:26:44.677Z,8.07
2018-03-21T12:29:12.125Z,9.15
2018-03-21T12:31:39.665Z,8.60
2018-03-21T12:34:07.820Z,11.63
2018-03-21T12:36:35.289Z,14.73
2018-03-21T12:39:02.767Z,15.83
2018-03-21T12:41:30.220Z,6.13
2018-03-21T12:43:57.696Z,5.00
2018-03-21T12:46:25.156Z,6.30
2018-03-21T12:48:52.604Z,6.43
2018-03-21T12:51:20.063Z,6.07
2018-03-21T12:53:47.509Z,10.27
2018-03-21T12:56:15.044Z,4.30
2018-03-21T12:58:42.542Z,3.97
2018-03-21T13:01:10.004Z,7.80
2018-03-21T13:03:37.470Z,3.93
2018-03-21T13:06:04.914Z,4.90
2018-03-21T13:08:32.390Z,5.77
2018-03-21T13:11:00.606Z,7.17
2018-03-21T13:13:28.085Z,5.30
2018-03-21T13:15:55.533Z,4.33
2018-03-21T13:18:22.990Z,5.27
2018-03-21T13:20:50.439Z,6.10
2018-03-21T13:23:17.902Z,4.27
2018-03-21T13:25:45.389Z,9.45
2018-03-21T13:28:12.854Z,4.70
2018-03-21T13:30:40.318Z,4.70
2018-03-21T13:33:09.283Z,7.97
2018-03-21T13:35:36.733Z,5.87
2018-03-21T13:38:04.195Z,8.67
2018-03-21T13:40:31.663Z,4.83
2018-03-21T13:42:59.124Z,5.23
2018-03-21T13:45:26.569Z,5.03
2018-03-21T13:47:54.033Z,4.97
2018-03-21T13:50:21.508Z,4.40
2018-03-21T13:52:48.962Z,5.10
2018-03-21T13:55:17.901Z,5.20
2018-03-21T13:57:45.411Z,4.85
2018-03-21T14:00:12.839Z,7.50
2018-03-21T14:02:40.279Z,4.50
2018-03-21T14:05:07.745Z,4.20
2018-03-21T14:07:35.201Z,4.77
2018-03-21T14:10:02.699Z,5.33
2018-03-21T14:12:30.153Z,41.60
2018-03-21T14:14:57.612Z,5.60
2018-03-21T14:17:25.088Z,6.30
2018-03-21T14:19:53.329Z,4.10
2018-03-21T14:22:20.796Z,6.47
2018-03-21T14:24:48.261Z,4.90
2018-03-21T14:27:17.217Z,6.50
2018-03-21T14:29:44.689Z,3.70
2018-03-21T14:32:12.148Z,3.30
2018-03-21T14:34:39.629Z,3.60
2018-03-21T14:37:07.179Z,4.40
2018-03-21T14:39:34.645Z,2.90
2018-03-21T14:42:02.092Z,4.57
2018-03-21T14:44:29.566Z,3.53
2018-03-21T14:46:57.781Z,3.63
2018-03-21T14:49:25.296Z,6.57
2018-03-21T14:51:52.693Z,5.70
2018-03-21T14:54:20.157Z,3.00
2018-03-21T14:56:47.624Z,6.43
2018-03-21T14:59:15.086Z,3.10
2018-03-21T15:01:42.539Z,2.80
2018-03-21T15:04:10.005Z,3.55
2018-03-21T15:06:37.453Z,6.37
2018-03-21T15:09:04.932Z,7.40
2018-03-21T15:11:32.381Z,3.70
2018-03-21T15:13:59.849Z,6.30
2018-03-21T15:16:27.296Z,2.93
2018-03-21T15:18:54.763Z,20.83
2018-03-21T15:21:22.236Z,4.43
2018-03-21T15:23:49.685Z,4.53
2018-03-21T15:26:17.129Z,3.47
2018-03-21T15:28:44.599Z,3.70
2018-03-21T15:31:12.053Z,3.03
2018-03-21T15:33:39.512Z,3.20
2018-03-21T15:36:06.960Z,3.30
2018-03-21T15:38:34.406Z,2.67
2018-03-21T15:41:01.861Z,8.97
2018-03-21T15:43:29.313Z,7.57
2018-03-21T15:45:56.790Z,4.43
2018-03-21T15:48:32.276Z,5.37
2018-03-21T15:50:59.805Z,5.73
2018-03-21T15:53:28.760Z,5.72
2018-03-21T15:55:57.228Z,3.87
2018-03-21T15:58:26.084Z,2.97
2018-03-21T16:00:53.486Z,5.63
2018-03-21T16:03:21.722Z,3.87
2018-03-21T16:05:49.938Z,8.47
2018-03-21T16:08:17.390Z,4.80
2018-03-21T16:10:44.874Z,4.80
2018-03-21T16:13:12.340Z,6.30
2018-03-21T16:15:41.319Z,5.13
2018-03-21T16:18:08.756Z,7.60
2018-03-21T16:20:36.236Z,4.20
2018-03-21T16:23:03.661Z,5.33
2018-03-21T16:25:31.140Z,4.93
2018-03-21T16:27:58.592Z,7.73
2018-03-21T16:30:26.070Z,7.47
2018-03-21T16:32:53.533Z,3.00
2018-03-21T16:35:20.991Z,5.00
2018-03-21T16:37:48.440Z,5.00
2018-03-21T16:40:15.896Z,4.77
2018-03-21T16:42:43.338Z,4.97
2018-03-21T16:45:10.820Z,5.27
2018-03-21T16:47:38.269Z,2.53
2018-03-21T16:50:05.723Z,2.60
2018-03-21T16:52:33.197Z,14.67
2018-03-21T16:55:00.658Z,6.55
2018-03-21T16:57:28.098Z,3.30
2018-03-21T16:59:55.548Z,6.93
2018-03-21T17:02:23.014Z,6.10
2018-03-21T17:04:50.465Z,3.60
2018-03-21T17:07:17.929Z,2.00
2018-03-21T17:09:45.378Z,3.97
2018-03-21T17:12:12.843Z,4.60
2018-03-21T17:14:40.291Z,3.80
2018-03-21T17:17:07.762Z,3.97
2018-03-21T17:19:35.225Z,1.93
2018-03-21T17:22:02.695Z,4.00
2018-03-21T17:24:30.134Z,8.40
2018-03-21T17:26:57.602Z,3.93
2018-03-21T17:29:25.050Z,4.00
2018-03-21T17:31:52.498Z,3.47
2018-03-21T17:34:19.941Z,4.80
2018-03-21T17:36:47.398Z,7.97
2018-03-21T17:39:14.852Z,2.30
2018-03-21T17:41:42.305Z,3.53
2018-03-21T17:44:09.760Z,3.40
2018-03-21T17:46:37.213Z,6.40
2018-03-21T17:49:05.230Z,3.83
2018-03-21T17:51:32.670Z,4.53
2018-03-21T17:54:01.631Z,3.30
2018-03-21T17:56:29.084Z,3.00
2018-03-21T17:58:56.530Z,2.77
2018-03-21T18:01:23.977Z,2.22
2018-03-21T18:03:51.442Z,1.77
2018-03-21T18:06:18.905Z,3.60
2018-03-21T18:08:46.351Z,2.37
2018-03-21T18:11:14.220Z,2.27
2018-03-21T18:13:41.670Z,4.53
2018-03-21T18:16:09.883Z,4.83
2018-03-21T18:18:37.336Z,7.37
2018-03-21T18:21:04.820Z,10.90
2018-03-21T18:23:32.268Z,34.70
2018-03-21T18:25:59.728Z,24.47
2018-03-21T18:28:27.181Z,16.00
2018-03-21T18:30:54.643Z,10.17
2018-03-21T18:33:22.263Z,7.97
2018-03-21T18:35:49.724Z,5.83
2018-03-21T18:38:17.172Z,5.62
2018-03-21T18:40:45.520Z,3.20
2018-03-21T18:43:13.754Z,3.50
2018-03-21T18:45:41.185Z,4.27
2018-03-21T18:48:08.641Z,4.80
2018-03-21T18:50:39.626Z,5.63
2018-03-21T18:53:07.096Z,5.97
2018-03-21T18:55:34.573Z,13.10
2018-03-21T18:58:02.806Z,12.37
2018-03-21T19:00:30.270Z,11.10
2018-03-21T19:02:57.746Z,13.27
2018-03-21T19:05:25.193Z,12.83
2018-03-21T19:07:52.657Z,9.50
2018-03-21T19:10:20.102Z,10.87
2018-03-21T19:12:47.581Z,10.50
2018-03-21T19:15:15.025Z,13.90
2018-03-21T19:17:42.509Z,9.38
2018-03-21T19:20:10.728Z,26.50
2018-03-21T19:22:38.205Z,42.43
2018-03-21T19:25:05.669Z,35.83
2018-03-21T19:27:33.156Z,26.20
2018-03-21T19:30:01.381Z,17.00
2018-03-21T19:32:28.866Z,9.30
2018-03-21T19:34:57.152Z,7.90
2018-03-21T19:37:24.616Z,5.30
2018-03-21T19:39:52.929Z,13.50
2018-03-21T19:42:20.394Z,6.00
2018-03-21T19:44:47.838Z,4.70
2018-03-21T19:47:16.228Z,2.57
2018-03-21T19:49:43.688Z,9.53
2018-03-21T19:52:11.144Z,14.67
2018-03-21T19:54:38.671Z,18.17
2018-03-21T19:57:06.359Z,17.73
2018-03-21T19:59:33.817Z,24.60
2018-03-21T20:02:01.298Z,4.97
2018-03-21T20:04:28.772Z,6.80
2018-03-21T20:06:56.231Z,7.37
2018-03-21T20:09:23.671Z,4.73
2018-03-21T20:11:51.137Z,7.50
2018-03-21T20:14:18.865Z,14.93
2018-03-21T20:16:46.435Z,19.77
2018-03-21T20:19:13.902Z,4.17
2018-03-21T20:21:41.581Z,6.10
2018-03-21T20:24:09.061Z,8.70
2018-03-21T20:26:36.514Z,15.50
2018-03-21T20:29:03.974Z,22.13
2018-03-21T20:31:31.444Z,14.07
2018-03-21T20:33:59.677Z,9.40
2018-03-21T20:36:27.163Z,7.80
2018-03-21T20:38:54.593Z,9.63
2018-03-21T20:41:22.061Z,13.20
2018-03-21T20:43:49.529Z,12.30
2018-03-21T20:46:16.977Z,15.73
2018-03-21T20:48:45.213Z,13.37
2018-03-21T20:51:12.672Z,15.40
2018-03-21T20:53:40.125Z,15.30
2018-03-21T20:56:07.577Z,14.40
2018-03-21T20:58:35.049Z,15.03
2018-03-21T21:01:02.526Z,15.30
2018-03-21T21:03:30.099Z,14.03
2018-03-21T21:05:57.552Z,10.60
2018-03-21T21:08:25.018Z,24.57
2018-03-21T21:10:52.583Z,22.23
2018-03-21T21:13:20.050Z,10.40
2018-03-21T21:15:48.330Z,11.83
2018-03-21T21:18:16.558Z,12.00
2018-03-21T21:20:44.038Z,18.43
2018-03-21T21:23:11.520Z,16.43
2018-03-21T21:25:38.975Z,12.50
2018-03-21T21:28:06.423Z,8.90
2018-03-21T21:30:33.885Z,10.40
2018-03-21T21:33:01.328Z,9.63
2018-03-21T21:35:28.815Z,7.10
2018-03-21T21:37:57.048Z,4.90
2018-03-21T21:40:24.525Z,5.60
2018-03-21T21:42:51.977Z,9.57
2018-03-21T21:45:19.449Z,16.30
2018-03-21T21:47:46.915Z,12.00
2018-03-21T21:50:15.273Z,6.77
2018-03-21T21:52:42.722Z,7.20
2018-03-21T21:55:10.218Z,7.37
2018-03-21T21:57:38.437Z,7.00
2018-03-21T22:00:05.889Z,5.30
2018-03-21T22:02:33.361Z,7.33
2018-03-21T22:05:00.818Z,7.27
2018-03-21T22:07:28.282Z,10.00
2018-03-21T22:09:55.746Z,8.77
2018-03-21T22:12:23.992Z,10.17
2018-03-21T22:14:51.443Z,5.37
2018-03-21T22:17:18.903Z,5.33
2018-03-21T22:19:46.371Z,6.17
2018-03-21T22:22:13.833Z,4.93
2018-03-21T22:24:41.415Z,5.63
2018-03-21T22:27:08.861Z,6.20
2018-03-21T22:29:37.840Z,8.80
2018-03-21T22:32:05.293Z,6.90
2018-03-21T22:34:32.753Z,6.40
2018-03-21T22:37:00.224Z,6.20
2018-03-21T22:39:27.680Z,12.20
2018-03-21T22:41:55.137Z,9.83
2018-03-21T22:44:22.610Z,7.90
2018-03-21T22:46:50.077Z,9.60
2018-03-21T22:49:17.541Z,12.60
2018-03-21T22:51:45.771Z,13.30
2018-03-21T22:54:13.245Z,12.30
2018-03-21T22:56:40.702Z,13.47
2018-03-21T22:59:08.257Z,14.20
2018-03-21T23:01:35.710Z,12.33
2018-03-21T23:04:03.166Z,7.77
2018-03-21T23:06:30.737Z,12.20
2018-03-21T23:08:58.325Z,15.47
2018-03-21T23:11:26.543Z,9.30
2018-03-21T23:13:54.008Z,13.03
2018-03-21T23:16:21.473Z,11.85
2018-03-21T23:18:48.946Z,11.67
2018-03-21T23:21:16.415Z,14.85
2018-03-21T23:23:43.886Z,12.97
2018-03-21T23:26:12.108Z,16.13
2018-03-21T23:28:39.560Z,18.37
2018-03-21T23:31:08.054Z,18.17
2018-03-21T23:33:35.527Z,13.60
2018-03-21T23:36:02.980Z,13.77
2018-03-21T23:38:30.465Z,17.60
2018-03-21T23:40:57.930Z,52.47
2018-03-21T23:43:26.162Z,24.63
2018-03-21T23:45:53.630Z,20.43
2018-03-21T23:48:21.102Z,54.23
2018-03-21T23:50:48.567Z,43.80
2018-03-21T23:53:16.050Z,56.83
2018-03-21T23:55:44.346Z,46.13
2018-03-21T23:58:11.858Z,24.70
